Arendal — 3EWV4 — position and weather

sailwx.info

Track history (hours):
 
Tides and Currents Weather Stations Pressure Air Temp Water Temp Dewpoint Dewpoint Depression Visibility Wind Speed Wind Dir Waves Ship Positions

Arendal

Last reported at 2018-Feb-12 18:02 UTC. Time now 2018-Feb-21 11:14 UTC.
Position N 01°15' E 104°06'.
Warning: this ship's position is 8 days out of date.

Length 183 m; draft 8.3 m.

Type: Ship. MMSI: 370297000.

Date/timePositionNaut miles runAvg speedWind from/ knotsBaromVisibWave heightAir tempDewpointWater temp
2018-Feb-12 18:02N 01°15' E 104°06'211.5
2018-Feb-12 17:52N 01°15' E 104°04'410.9
2018-Feb-12 17:28N 01°14' E 103°60'510.8
2018-Feb-12 17:00N 01°13' E 103°55'5 9.2
2018-Feb-12 16:28N 01°11' E 103°50'3 5.5
2018-Feb-12 16:00N 01°13' E 103°49'1 0.6
2018-Feb-12 14:48N 01°13' E 103°49'0 0.3
2018-Feb-12 14:30N 01°13' E 103°49'0 0.3
2018-Feb-12 13:51N 01°13' E 103°49'0 0.4
2018-Feb-12 13:30N 01°13' E 103°49'0 0.0
2018-Feb-12 12:57N 01°13' E 103°49'0 0.1
2018-Feb-12 12:21N 01°13' E 103°49'0 0.0
2018-Feb-12 11:57N 01°13' E 103°49'0 0.0
2018-Feb-12 11:24N 01°13' E 103°49'0 0.1
2018-Feb-12 10:57N 01°13' E 103°49'0 0.1
2018-Feb-12 10:30N 01°13' E 103°49'0 0.0
2018-Feb-12 10:01N 01°13' E 103°49'0 0.0
2018-Feb-12 09:30N 01°13' E 103°49'0 0.1
2018-Feb-12 09:01N 01°13' E 103°49'0 0.0
2018-Feb-12 08:30N 01°13' E 103°49'0 0.1
2018-Feb-12 08:01N 01°13' E 103°49'0 0.0
2018-Feb-12 07:30N 01°13' E 103°49'0 0.0
2018-Feb-12 06:58N 01°13' E 103°49'0 0.0
2018-Feb-12 06:30N 01°13' E 103°49'0 0.0
2018-Feb-12 06:00N 01°13' E 103°49'0 0.0
2018-Feb-12 05:30N 01°13' E 103°49'0 0.0
2018-Feb-12 05:00N 01°13' E 103°49'0 0.0
2018-Feb-12 04:30N 01°13' E 103°49'0 0.1
2018-Feb-12 04:01N 01°13' E 103°49'0 0.3
2018-Feb-12 03:31N 01°13' E 103°49'3 5.2
2018-Feb-12 03:00N 01°14' E 103°47'5 9.2
2018-Feb-12 02:30N 01°14' E 103°42'4 8.7
2018-Feb-12 02:01N 01°12' E 103°38'3 6.1
2018-Feb-12 01:29N 01°13' E 103°35'2 4.9
2018-Feb-12 01:00N 01°13' E 103°32'4 8.1
2018-Feb-12 00:30N 01°11' E 103°29'4 7.2
2018-Feb-12 00:00N 01°11' E 103°25'5 9.3
2018-Feb-11 23:31N 01°14' E 103°22'5 9.3
2018-Feb-11 22:59N 01°17' E 103°18'  
Track history (hours):
 
Tides and Currents Weather Stations Pressure Air Temp Water Temp Dewpoint Dewpoint Depression Visibility Wind Speed Wind Dir Waves Ship Positions

Arendal

Last reported at 2018-Feb-12 18:02 UTC. Time now 2018-Feb-21 11:14 UTC.
Position N 01°15' E 104°06'.
Warning: this ship's position is 8 days out of date.

Length 183 m; draft 8.3 m.

Type: Ship. MMSI: 370297000.

Date/timePositionNaut miles runAvg speedWind from/ knotsBaromVisibWave heightAir tempDewpointWater temp
2018-Feb-12 18:02N 01°15' E 104°06'211.5
2018-Feb-12 17:52N 01°15' E 104°04'410.9
2018-Feb-12 17:28N 01°14' E 103°60'510.8
2018-Feb-12 17:00N 01°13' E 103°55'5 9.2
2018-Feb-12 16:28N 01°11' E 103°50'3 5.5
2018-Feb-12 16:00N 01°13' E 103°49'1 0.6
2018-Feb-12 14:48N 01°13' E 103°49'0 0.3
2018-Feb-12 14:30N 01°13' E 103°49'0 0.3
2018-Feb-12 13:51N 01°13' E 103°49'0 0.4
2018-Feb-12 13:30N 01°13' E 103°49'0 0.0
2018-Feb-12 12:57N 01°13' E 103°49'0 0.1
2018-Feb-12 12:21N 01°13' E 103°49'0 0.0
2018-Feb-12 11:57N 01°13' E 103°49'0 0.0
2018-Feb-12 11:24N 01°13' E 103°49'0 0.1
2018-Feb-12 10:57N 01°13' E 103°49'0 0.1
2018-Feb-12 10:30N 01°13' E 103°49'0 0.0
2018-Feb-12 10:01N 01°13' E 103°49'0 0.0
2018-Feb-12 09:30N 01°13' E 103°49'0 0.1
2018-Feb-12 09:01N 01°13' E 103°49'0 0.0
2018-Feb-12 08:30N 01°13' E 103°49'0 0.1
2018-Feb-12 08:01N 01°13' E 103°49'0 0.0
2018-Feb-12 07:30N 01°13' E 103°49'0 0.0
2018-Feb-12 06:58N 01°13' E 103°49'0 0.0
2018-Feb-12 06:30N 01°13' E 103°49'0 0.0
2018-Feb-12 06:00N 01°13' E 103°49'0 0.0
2018-Feb-12 05:30N 01°13' E 103°49'0 0.0
2018-Feb-12 05:00N 01°13' E 103°49'0 0.0
2018-Feb-12 04:30N 01°13' E 103°49'0 0.1
2018-Feb-12 04:01N 01°13' E 103°49'0 0.3
2018-Feb-12 03:31N 01°13' E 103°49'3 5.2
2018-Feb-12 03:00N 01°14' E 103°47'5 9.2
2018-Feb-12 02:30N 01°14' E 103°42'4 8.7
2018-Feb-12 02:01N 01°12' E 103°38'3 6.1
2018-Feb-12 01:29N 01°13' E 103°35'2 4.9
2018-Feb-12 01:00N 01°13' E 103°32'4 8.1
2018-Feb-12 00:30N 01°11' E 103°29'4 7.2
2018-Feb-12 00:00N 01°11' E 103°25'5 9.3
2018-Feb-11 23:31N 01°14' E 103°22'5 9.3
2018-Feb-11 22:59N 01°17' E 103°18'  

Dump ship's entire track history